Time;durP1;ratioP1;P1;durP2;ratioP2;P2;SDS_P1;SDS_P2;PMS_P1;PMS_P2;Temp;Humidity;BMP_temperature;BMP_pressure;BME280_temperature;BME280_humidity;BME280_pressure;Samples;Min_cycle;Max_cycle;Signal;HPM_P1;HPM_P2
2023/10/12 00:02:00;;;;;;;7.05;3.90;;;;;;;20.97;57.11;101134.56;4949416;28;20050;-65
2023/10/12 00:04:28;;;;;;;7.00;4.20;;;;;;;20.97;56.89;101145.16;4963736;28;20042;-63
2023/10/12 00:06:54;;;;;;;6.50;4.40;;;;;;;20.98;56.88;101152.16;4949228;28;20042;-64
2023/10/12 00:09:25;;;;;;;9.90;4.68;;;;;;;20.97;56.96;101157.59;4952086;28;20039;-65
2023/10/12 00:11:57;;;;;;;7.57;4.55;;;;;;;20.97;57.27;101160.22;4962214;28;20035;-64
2023/10/12 00:14:29;;;;;;;7.20;4.30;;;;;;;20.97;57.14;101162.88;4963208;28;20035;-64
2023/10/12 00:16:55;;;;;;;9.30;4.60;;;;;;;20.97;57.20;101161.06;4964697;28;20042;-64
2023/10/12 00:19:23;;;;;;;9.25;4.78;;;;;;;20.95;57.42;101167.47;4968202;28;20050;-64
2023/10/12 00:21:49;;;;;;;6.72;4.43;;;;;;;20.97;57.07;101165.53;4953781;28;20042;-63
2023/10/12 00:24:17;;;;;;;8.15;4.88;;;;;;;20.95;57.13;101168.31;4959832;28;20451;-63
2023/10/12 00:26:43;;;;;;;10.00;4.78;;;;;;;20.94;57.33;101174.56;4952713;28;20083;-65
2023/10/12 00:29:09;;;;;;;7.25;4.53;;;;;;;20.95;57.56;101162.16;4949981;28;20063;-62
2023/10/12 00:31:39;;;;;;;8.88;4.40;;;;;;;20.94;57.33;101169.28;4956930;28;20046;-64
2023/10/12 00:34:04;;;;;;;9.48;4.57;;;;;;;20.95;57.34;101184.22;4966564;28;20042;-62
2023/10/12 00:36:30;;;;;;;9.68;4.80;;;;;;;20.93;57.38;101180.00;4950313;28;20031;-63
2023/10/12 00:38:56;;;;;;;10.90;4.75;;;;;;;20.94;57.61;101192.28;4954936;28;20046;-64
2023/10/12 00:41:24;;;;;;;7.85;4.43;;;;;;;20.95;57.40;101199.25;4955108;28;20038;-62
2023/10/12 00:44:06;;;;;;;8.02;5.05;;;;;;;20.93;57.70;101207.34;4965452;28;20037;-62
2023/10/12 00:51:49;;;;;;;10.25;5.38;;;;;;;20.93;57.79;101212.63;4960341;28;20092;-64
2023/10/12 00:54:25;;;;;;;8.50;4.95;;;;;;;20.93;57.99;101215.28;4960098;28;20031;-64
2023/10/12 00:56:53;;;;;;;9.15;4.53;;;;;;;20.92;57.92;101213.63;4957093;28;20043;-65
2023/10/12 00:59:21;;;;;;;8.85;5.10;;;;;;;20.93;57.91;101215.28;4956997;28;20061;-64
2023/10/12 01:01:48;;;;;;;9.43;5.25;;;;;;;20.93;57.63;101217.94;4953301;28;20027;-65
2023/10/12 01:04:16;;;;;;;10.35;5.00;;;;;;;20.93;57.67;101217.94;4956361;28;20031;-65
2023/10/12 01:06:44;;;;;;;8.15;5.22;;;;;;;20.91;57.85;101203.16;4958766;28;20038;-62
2023/10/12 01:09:18;;;;;;;9.60;5.25;;;;;;;20.93;58.20;101211.81;4948247;28;20027;-63
2023/10/12 01:11:58;;;;;;;8.77;5.10;;;;;;;20.92;58.10;101226.00;4957142;28;20023;-61
2023/10/12 01:14:26;;;;;;;8.10;4.97;;;;;;;20.92;58.10;101212.75;4949728;28;20043;-64
2023/10/12 01:16:58;;;;;;;11.85;5.55;;;;;;;20.91;58.41;101219.06;4959760;28;20030;-64
2023/10/12 01:19:30;;;;;;;7.80;5.15;;;;;;;20.92;57.96;101218.06;4957706;28;20078;-65
2023/10/12 01:21:57;;;;;;;9.13;5.28;;;;;;;20.91;58.27;101224.34;4967370;28;20035;-64
2023/10/12 01:24:32;;;;;;;11.05;6.20;;;;;;;20.90;58.46;101218.19;4965082;28;20031;-62
2023/10/12 01:26:59;;;;;;;9.48;5.35;;;;;;;20.90;58.18;101222.66;4956583;28;20090;-62
2023/10/12 01:29:25;;;;;;;8.02;5.63;;;;;;;20.90;58.18;101214.72;4957334;28;20030;-64
2023/10/12 01:32:40;;;;;;;8.68;5.32;;;;;;;20.89;58.52;101208.59;4966748;28;20113;-61
2023/10/12 01:34:48;;;;;;;9.48;5.25;;;;;;;20.90;58.20;101206.75;4947010;28;20074;-64
2023/10/12 01:37:26;;;;;;;9.10;5.60;;;;;;;20.92;58.53;101191.56;4957431;28;20038;-62
2023/10/12 01:45:25;;;;;;;8.68;5.78;;;;;;;20.89;58.50;101168.03;4955694;28;20050;-61
2023/10/12 01:47:55;;;;;;;8.10;5.25;;;;;;;20.89;58.41;101176.81;4949223;28;20050;-64
2023/10/12 01:50:21;;;;;;;10.52;5.90;;;;;;;20.89;58.57;101174.16;4966919;28;20070;-64
2023/10/12 01:52:47;;;;;;;7.93;5.25;;;;;;;20.87;58.76;101177.91;4952493;28;20070;-64
2023/10/12 01:55:16;;;;;;;10.05;5.80;;;;;;;20.87;58.55;101188.50;4952791;28;20038;-64
2023/10/12 01:57:53;;;;;;;7.97;5.53;;;;;;;20.87;58.71;101191.13;4957651;28;20046;-62
2023/10/12 02:00:38;;;;;;;9.20;5.60;;;;;;;20.89;58.64;101191.88;4959196;28;20074;-62
2023/10/12 02:03:15;;;;;;;9.95;5.95;;;;;;;20.88;58.75;101185.72;4956089;28;20526;-64
2023/10/12 02:05:51;;;;;;;8.13;5.40;;;;;;;20.87;58.52;101178.75;4957422;28;20030;-66
2023/10/12 02:08:20;;;;;;;9.55;5.90;;;;;;;20.87;58.67;101178.75;4958606;28;20035;-65
2023/10/12 02:10:56;;;;;;;9.20;5.90;;;;;;;20.87;58.78;101178.75;4954833;28;20533;-63
2023/10/12 02:13:22;;;;;;;7.28;5.07;;;;;;;20.87;58.56;101185.84;4959005;28;20038;-65
2023/10/12 02:15:51;;;;;;;9.80;5.53;;;;;;;20.87;58.62;101196.44;4948934;28;20040;-65
2023/10/12 02:18:18;;;;;;;10.60;5.90;;;;;;;20.86;58.59;101194.78;4959657;28;20034;-66
2023/10/12 02:20:58;;;;;;;9.18;6.07;;;;;;;20.86;58.63;101198.25;4954241;28;20039;-64
2023/10/12 02:23:23;;;;;;;6.90;5.07;;;;;;;20.85;58.94;101193.91;4956805;28;20027;-62
2023/10/12 02:25:52;;;;;;;9.30;6.10;;;;;;;20.85;58.66;101188.63;4956314;28;20030;-63
2023/10/12 02:28:22;;;;;;;10.07;5.55;;;;;;;20.87;58.75;101169.94;4961547;28;20633;-62
2023/10/12 02:30:53;;;;;;;10.77;6.18;;;;;;;20.84;58.75;101165.78;4953219;28;20039;-65
2023/10/12 02:33:23;;;;;;;9.05;5.70;;;;;;;20.84;58.84;101144.59;4950345;28;20031;-64
2023/10/12 02:35:49;;;;;;;9.20;5.68;;;;;;;20.86;58.65;101141.81;4951603;28;20372;-63
2023/10/12 02:38:15;;;;;;;9.93;5.68;;;;;;;20.84;58.65;101158.66;4967106;28;20137;-61
2023/10/12 02:40:43;;;;;;;9.90;5.60;;;;;;;20.84;58.64;101145.41;4955636;28;20118;-63
2023/10/12 02:43:10;;;;;;;8.50;6.07;;;;;;;20.84;58.70;101152.53;4960796;28;20041;-62
2023/10/12 02:45:40;;;;;;;9.15;5.85;;;;;;;20.82;58.92;101160.63;4955483;28;20038;-63
2023/10/12 02:48:12;;;;;;;9.65;6.40;;;;;;;20.84;58.83;101150.72;4965521;28;20448;-65
2023/10/12 02:50:48;;;;;;;8.90;6.13;;;;;;;20.83;58.75;101146.38;4955584;28;20093;-63
2023/10/12 02:53:13;;;;;;;10.25;6.40;;;;;;;20.84;58.75;101144.59;4970031;28;20066;-63
2023/10/12 02:55:43;;;;;;;10.15;6.05;;;;;;;20.84;58.87;101144.59;4955048;28;20024;-63
2023/10/12 02:58:19;;;;;;;8.80;5.32;;;;;;;20.83;58.99;101142.91;4959817;28;20034;-64
2023/10/12 03:00:47;;;;;;;9.45;5.70;;;;;;;20.83;58.63;101146.38;4962776;28;20070;-63
2023/10/12 03:03:36;;;;;;;9.23;5.78;;;;;;;20.84;58.91;101144.59;4961236;28;20039;-66
2023/10/12 03:06:07;;;;;;;8.45;5.93;;;;;;;20.83;58.98;101146.38;4963809;28;20067;-65
2023/10/12 03:08:33;;;;;;;7.25;5.10;;;;;;;20.82;58.79;101147.38;4962850;28;20403;-66
2023/10/12 03:13:28;;;;;;;9.88;5.25;;;;;;;20.81;58.59;101136.91;4950654;28;20423;-63
2023/10/12 03:15:59;;;;;;;9.30;5.20;;;;;;;20.80;58.97;101138.69;4959876;28;20182;-63
2023/10/12 03:18:28;;;;;;;9.25;5.82;;;;;;;20.80;58.85;101140.50;4961015;28;20035;-61
2023/10/12 03:21:04;;;;;;;10.90;5.43;;;;;;;20.81;59.15;101132.44;4960158;28;20069;-65
2023/10/12 03:23:33;;;;;;;7.47;4.75;;;;;;;20.82;59.08;101143.84;4961477;28;20035;-63
2023/10/12 03:26:07;;;;;;;11.05;5.80;;;;;;;20.81;59.11;101139.56;4959192;28;20487;-62
2023/10/12 03:28:43;;;;;;;8.43;5.25;;;;;;;20.82;58.72;101138.56;4959623;28;20090;-61
2023/10/12 03:31:15;;;;;;;8.63;5.20;;;;;;;20.82;58.89;101139.41;4960945;28;20111;-65
2023/10/12 03:33:53;;;;;;;8.57;5.18;;;;;;;20.80;58.82;101133.41;4960118;28;20432;-62
2023/10/12 03:36:25;;;;;;;8.77;5.60;;;;;;;20.80;59.02;101136.03;4958040;28;20066;-61
2023/10/12 03:39:43;;;;;;;8.02;5.18;;;;;;;20.79;59.13;101126.44;4957106;28;20058;-64
2023/10/12 03:44:18;;;;;;;7.95;5.10;;;;;;;20.80;59.02;101141.34;4961532;28;20503;-63
2023/10/12 03:46:46;;;;;;;7.75;5.38;;;;;;;20.79;59.02;101152.06;4959949;28;20042;-64
2023/10/12 03:49:24;;;;;;;8.48;5.00;;;;;;;20.78;58.86;101156.53;4959253;28;20129;-66
2023/10/12 03:51:57;;;;;;;7.53;5.35;;;;;;;20.79;58.90;101149.44;4954178;28;20117;-63
2023/10/12 03:54:29;;;;;;;7.80;5.13;;;;;;;20.79;58.82;101158.22;4958150;28;20039;-64
2023/10/12 03:57:06;;;;;;;7.45;5.32;;;;;;;20.79;59.02;101152.94;4960988;28;20062;-63
2023/10/12 04:00:25;;;;;;;8.55;5.10;;;;;;;20.79;59.10;101145.00;4963790;28;20073;-63
2023/10/12 04:02:24;;;;;;;8.68;4.97;;;;;;;20.79;58.96;101152.06;4966707;28;20050;-65
2023/10/12 04:05:15;;;;;;;8.38;5.63;;;;;;;20.79;59.10;101171.47;4958703;28;20034;-61
2023/10/12 04:08:00;;;;;;;7.20;5.28;;;;;;;20.79;58.67;101173.25;4966670;28;20439;-62
2023/10/12 04:18:42;;;;;;;8.02;4.97;;;;;;;20.75;58.77;101183.28;4957145;28;20897;-62
2023/10/12 04:21:10;;;;;;;6.57;4.57;;;;;;;20.78;58.97;101182.19;4958554;28;20049;-65
2023/10/12 04:23:49;;;;;;;6.97;4.45;;;;;;;20.78;59.15;101177.72;4949250;28;20090;-62
2023/10/12 04:28:52;;;;;;;7.28;4.93;;;;;;;20.76;59.18;101176.19;4956602;28;20645;-65
2023/10/12 04:31:20;;;;;;;9.13;5.10;;;;;;;20.78;59.39;101179.56;4951114;28;20035;-64
2023/10/12 04:34:48;;;;;;;8.10;5.15;;;;;;;20.76;58.91;101178.81;4949888;28;20514;-65
2023/10/12 04:41:39;;;;;;;9.20;5.32;;;;;;;20.75;59.26;101178.00;4948216;28;20031;-64
2023/10/12 04:46:49;;;;;;;;;;;;;;;20.80;58.84;101181.06;4968197;28;20086;-65
2023/10/12 04:51:50;;;;;;;8.50;5.05;;;;;;;20.78;58.88;101198.91;4955082;28;20061;-65
2023/10/12 04:54:23;;;;;;;8.73;5.05;;;;;;;20.75;58.77;101191.25;4952062;28;20062;-62
2023/10/12 04:59:28;;;;;;;8.77;4.88;;;;;;;20.76;59.35;101184.13;4962609;28;20632;-64
2023/10/12 05:05:14;;;;;;;7.50;4.78;;;;;;;20.74;59.00;101184.25;4956620;28;20031;-62
2023/10/12 05:09:50;;;;;;;9.32;5.47;;;;;;;20.74;59.36;101205.44;4951117;28;20031;-63
2023/10/12 05:12:23;;;;;;;9.43;4.82;;;;;;;20.72;59.43;101212.69;4960067;28;20034;-62
2023/10/12 05:14:55;;;;;;;10.50;5.03;;;;;;;20.74;59.12;101229.28;4946784;28;20480;-63
2023/10/12 05:17:21;;;;;;;7.95;5.25;;;;;;;20.76;59.09;101226.50;4956265;28;20043;-64
2023/10/12 05:19:47;;;;;;;8.00;4.70;;;;;;;20.73;59.31;101230.28;4947795;28;20554;-65
2023/10/12 05:22:13;;;;;;;8.02;5.40;;;;;;;20.73;59.00;101229.41;4952249;28;20145;-66
2023/10/12 05:24:38;;;;;;;7.53;4.63;;;;;;;20.74;58.98;101223.97;4950998;28;20472;-63
2023/10/12 05:27:19;;;;;;;9.10;5.15;;;;;;;20.74;59.21;101216.03;4950895;28;20093;-65
2023/10/12 05:29:51;;;;;;;7.97;4.88;;;;;;;20.74;59.19;101217.84;4950316;28;20039;-66
2023/10/12 05:37:16;;;;;;;8.27;4.57;;;;;;;20.74;59.09;101225.81;4954145;28;20111;-64
2023/10/12 05:39:51;;;;;;;7.28;4.57;;;;;;;20.74;59.24;101225.81;4955450;28;20666;-64
2023/10/12 05:42:22;;;;;;;6.97;4.60;;;;;;;20.74;59.09;101223.16;4956833;28;20039;-64
2023/10/12 05:44:48;;;;;;;6.40;4.25;;;;;;;20.73;59.38;101219.69;4958233;28;20606;-65
2023/10/12 05:47:14;;;;;;;6.68;4.90;;;;;;;20.74;59.30;101231.09;4957691;28;20118;-65
2023/10/12 05:49:40;;;;;;;7.07;4.38;;;;;;;20.73;59.48;101232.91;4958997;28;20117;-63
2023/10/12 05:52:07;;;;;;;8.85;4.68;;;;;;;20.74;59.40;101233.75;4961388;28;20027;-65
2023/10/12 05:54:34;;;;;;;8.30;4.80;;;;;;;20.73;59.57;101251.47;4955374;28;20032;-64
2023/10/12 05:57:04;;;;;;;7.85;4.60;;;;;;;20.73;59.52;101253.25;4959192;28;20169;-64
2023/10/12 05:59:29;;;;;;;7.55;4.38;;;;;;;20.74;59.47;101247.00;4940803;28;20031;-63
2023/10/12 06:01:55;;;;;;;7.30;4.60;;;;;;;20.73;59.63;101258.53;4960212;28;20042;-63
2023/10/12 06:04:20;;;;;;;7.55;4.38;;;;;;;20.72;59.60;101257.72;4958964;28;20062;-65
2023/10/12 06:06:47;;;;;;;7.22;4.85;;;;;;;20.75;59.51;101259.28;4956309;28;20046;-64
2023/10/12 06:09:20;;;;;;;8.77;4.55;;;;;;;20.75;59.55;101259.28;4956560;28;20159;-64
2023/10/12 06:11:47;;;;;;;6.45;4.35;;;;;;;20.75;59.87;101254.81;4954772;28;20027;-63
2023/10/12 06:14:20;;;;;;;7.22;4.70;;;;;;;20.74;59.75;101263.72;4951675;28;20035;-64
2023/10/12 06:16:54;;;;;;;9.00;4.93;;;;;;;20.75;59.95;101252.16;4961147;28;20039;-62
2023/10/12 06:19:38;;;;;;;6.88;4.40;;;;;;;20.78;59.96;101262.50;4962607;28;20046;-64
2023/10/12 06:22:21;;;;;;;8.00;4.93;;;;;;;20.77;60.13;101262.63;4951985;28;20096;-65
2023/10/12 06:24:49;;;;;;;8.18;5.10;;;;;;;20.80;60.19;101270.31;4958882;28;20038;-63
2023/10/12 06:29:47;;;;;;;8.30;4.20;;;;;;;20.79;60.28;101272.13;4962472;28;20169;-64
2023/10/12 06:32:59;;;;;;;8.75;5.10;;;;;;;20.79;60.15;101276.56;4958501;28;20082;-63
2023/10/12 06:45:55;;;;;;;6.13;4.40;;;;;;;20.79;60.12;101273.91;4891046;29;20076;-64
2023/10/12 06:51:05;;;;;;;7.95;4.60;;;;;;;20.80;60.26;101276.44;4959419;28;20105;-63
2023/10/12 06:53:36;;;;;;;8.65;4.72;;;;;;;20.80;60.20;101288.84;4958888;28;20032;-62
2023/10/12 06:56:15;;;;;;;11.25;4.95;;;;;;;20.81;60.17;101293.19;4961749;28;20066;-63
2023/10/12 06:59:13;;;;;;;7.88;4.32;;;;;;;20.80;60.16;101291.50;4826847;28;20052;-62
2023/10/12 07:04:15;;;;;;;8.45;4.50;;;;;;;20.80;60.07;101300.28;4958482;28;20483;-65
2023/10/12 07:06:59;;;;;;;9.13;4.50;;;;;;;20.78;60.43;101304.88;4960717;28;20030;-62
2023/10/12 07:09:38;;;;;;;7.93;4.40;;;;;;;20.79;60.32;101303.91;4959969;28;20039;-63
2023/10/12 07:12:15;;;;;;;7.40;4.40;;;;;;;20.79;60.20;101303.91;4954334;28;20138;-65
2023/10/12 07:14:52;;;;;;;10.27;5.63;;;;;;;20.78;60.92;101291.63;4958941;28;20042;-64
2023/10/12 07:17:18;;;;;;;11.52;6.05;;;;;;;20.78;61.72;101304.88;4940012;28;20126;-65
2023/10/12 07:19:49;;;;;;;11.32;5.85;;;;;;;20.80;61.42;101312.69;4959867;28;20141;-64
2023/10/12 07:22:18;;;;;;;12.55;5.53;;;;;;;20.78;61.29;101304.88;4959683;28;20034;-66
2023/10/12 07:24:53;;;;;;;15.85;8.85;;;;;;;20.79;61.38;101311.00;4962187;28;20073;-65
2023/10/12 07:27:19;;;;;;;17.88;10.02;;;;;;;20.79;61.30;101319.81;4960974;28;20391;-64
2023/10/12 07:30:02;;;;;;;16.90;9.73;;;;;;;20.80;61.47;101315.34;4962443;28;20038;-63
2023/10/12 07:32:38;;;;;;;15.55;9.68;;;;;;;20.80;62.01;101318.81;4959935;28;20039;-65
2023/10/12 07:35:09;;;;;;;18.17;8.57;;;;;;;20.78;61.58;101323.41;4958256;28;20071;-65
2023/10/12 07:37:41;;;;;;;13.15;8.40;;;;;;;20.77;61.55;101323.53;4957161;28;20037;-66
2023/10/12 07:40:19;;;;;;;15.38;8.63;;;;;;;20.76;61.45;101324.50;4953593;28;20484;-63
2023/10/12 07:42:46;;;;;;;17.92;9.82;;;;;;;20.75;61.34;101323.66;4956222;28;20368;-63
2023/10/12 07:45:18;;;;;;;32.50;16.38;;;;;;;20.75;61.41;101333.44;4956160;28;20070;-64
2023/10/12 07:47:49;;;;;;;45.78;23.77;;;;;;;20.75;61.56;101330.78;4959798;28;20118;-63
2023/10/12 07:50:15;;;;;;;52.60;28.25;;;;;;;20.75;61.48;101321.03;4961402;28;20023;-64
2023/10/12 07:52:46;;;;;;;65.50;35.00;;;;;;;20.76;61.15;101327.16;4954972;28;20031;-65
2023/10/12 07:55:13;;;;;;;78.13;38.67;;;;;;;20.75;61.41;101322.84;4962485;28;20038;-63
2023/10/12 07:57:39;;;;;;;67.07;36.33;;;;;;;20.75;61.37;101322.84;4959815;28;20027;-64
2023/10/12 08:03:05;;;;;;;69.03;35.00;;;;;;;20.76;61.90;101330.66;4957806;28;20045;-66
2023/10/12 08:13:26;;;;;;;64.05;32.85;;;;;;;20.78;62.01;101317.28;4956832;28;20066;-64
2023/10/12 08:15:58;;;;;;;55.75;31.40;;;;;;;20.79;62.23;101311.84;4959436;28;20039;-64
2023/10/12 08:23:49;;;;;;;58.47;30.85;;;;;;;20.79;62.27;101317.16;4956609;28;20097;-62
2023/10/12 08:26:33;;;;;;;59.17;29.90;;;;;;;20.80;62.20;101320.63;4958333;28;20391;-65
2023/10/12 08:28:59;;;;;;;58.67;29.35;;;;;;;20.82;62.30;101321.34;4957838;28;20483;-63
2023/10/12 08:31:28;;;;;;;60.33;32.65;;;;;;;20.80;62.41;101318.00;4939547;28;20122;-64
2023/10/12 08:34:03;;;;;;;90.85;46.60;;;;;;;20.79;62.33;101318.94;4959275;28;20031;-63
2023/10/12 08:36:29;;;;;;;117.53;60.45;;;;;;;20.79;62.29;101325.09;4960652;28;20109;-64
2023/10/12 08:39:07;;;;;;;104.65;60.10;;;;;;;20.78;62.05;101323.41;4953230;28;20042;-61
2023/10/12 08:44:19;;;;;;;111.60;61.20;;;;;;;20.81;62.38;101327.63;4957558;28;20050;-65
2023/10/12 08:49:34;;;;;;;89.10;49.75;;;;;;;20.81;62.60;101331.09;4957595;28;20046;-63
2023/10/12 08:52:18;;;;;;;102.20;58.25;;;;;;;20.79;62.36;101338.34;4957307;28;20042;-65
2023/10/12 08:54:45;;;;;;;120.25;67.57;;;;;;;20.78;62.72;101344.59;4939195;28;20105;-66
2023/10/12 08:57:38;;;;;;;24.45;14.43;;;;;;;20.74;63.48;101351.13;4955913;28;20041;-66
2023/10/12 09:02:59;;;;;;;24.65;14.27;;;;;;;20.69;63.25;101347.19;4949559;28;20097;-68
2023/10/12 09:05:33;;;;;;;45.63;24.70;;;;;;;20.63;63.36;101341.41;4956011;28;20030;-66
2023/10/12 09:08:46;;;;;;;77.10;42.35;;;;;;;20.61;62.92;101345.16;4959029;28;20027;-63
2023/10/12 09:13:19;;;;;;;79.35;44.75;;;;;;;20.64;63.60;101345.75;4952138;28;20065;-66
2023/10/12 09:15:46;;;;;;;80.75;44.25;;;;;;;20.61;63.81;101343.34;4956561;28;20031;-66
2023/10/12 09:18:18;;;;;;;77.97;42.35;;;;;;;20.53;63.90;101352.91;4957522;28;20086;-64
2023/10/12 09:23:33;;;;;;;;;;;;;;;20.54;64.37;101359.91;4953043;28;20138;-65
2023/10/12 09:31:14;;;;;;;60.90;37.50;;;;;;;20.56;63.79;101353.47;4957423;28;20028;-63
2023/10/12 09:36:53;;;;;;;67.13;36.17;;;;;;;20.52;64.78;101352.06;4925852;28;20129;-63
2023/10/12 09:39:26;;;;;;;55.38;34.38;;;;;;;20.52;64.60;101340.63;4961662;28;20039;-64
2023/10/12 09:42:09;;;;;;;58.35;33.90;;;;;;;20.49;64.83;101339.09;4951102;28;20031;-66
2023/10/12 09:44:37;;;;;;;58.50;33.55;;;;;;;20.50;64.96;101337.28;4959273;28;20046;-66
2023/10/12 09:47:09;;;;;;;60.53;33.83;;;;;;;20.51;64.72;101339.78;4947582;28;20419;-62
2023/10/12 09:49:37;;;;;;;58.78;33.40;;;;;;;20.51;64.89;101337.16;4960521;28;20908;-65
2023/10/12 09:52:13;;;;;;;54.30;32.45;;;;;;;20.53;64.81;101331.72;4965608;28;20086;-64
2023/10/12 09:54:57;;;;;;;54.08;31.60;;;;;;;20.56;64.57;101347.34;4966890;28;20061;-65
2023/10/12 09:57:26;;;;;;;58.83;32.25;;;;;;;20.54;64.64;101338.72;4948494;28;20134;-65
2023/10/12 10:00:01;;;;;;;55.53;30.80;;;;;;;20.53;64.83;101327.25;4949141;28;20078;-64
2023/10/12 10:02:32;;;;;;;51.97;30.48;;;;;;;20.56;64.68;101331.47;4944931;28;20129;-64
2023/10/12 10:05:11;;;;;;;48.00;29.05;;;;;;;20.54;64.65;101331.59;4963311;28;20022;-67
2023/10/12 10:08:06;;;;;;;48.45;27.15;;;;;;;20.56;64.96;101336.75;4969993;28;20035;-67
2023/10/12 10:10:34;;;;;;;47.53;29.15;;;;;;;20.56;64.53;101334.13;4940279;28;20031;-64
2023/10/12 10:13:00;;;;;;;48.10;28.13;;;;;;;20.58;64.77;101334.81;4960701;28;20592;-65
2023/10/12 10:15:37;;;;;;;39.78;26.67;;;;;;;20.62;64.42;101333.59;4964209;28;20103;-62
2023/10/12 10:18:04;;;;;;;45.78;28.02;;;;;;;20.81;63.27;101331.09;4962352;28;20051;-67
2023/10/12 10:20:56;;;;;;;46.83;26.75;;;;;;;20.92;63.36;101322.25;4952162;28;20074;-64
2023/10/12 10:23:22;;;;;;;43.40;26.20;;;;;;;21.02;62.87;101319.63;4956612;28;20086;-63
2023/10/12 10:28:53;;;;;;;46.35;25.30;;;;;;;21.01;62.66;101310.84;4959282;28;20130;-67
2023/10/12 10:31:24;;;;;;;40.05;25.17;;;;;;;20.88;63.36;101312.88;4955960;28;20067;-66
2023/10/12 10:33:51;;;;;;;42.33;24.25;;;;;;;20.98;62.95;101316.41;4941415;28;20118;-64
2023/10/12 10:36:26;;;;;;;40.33;24.13;;;;;;;21.06;62.76;101299.00;4956832;28;20105;-66
2023/10/12 10:41:22;;;;;;;37.83;22.98;;;;;;;21.09;62.40;101304.88;4970516;28;20038;-63
2023/10/12 10:43:48;;;;;;;37.45;22.38;;;;;;;21.09;62.18;101296.91;4962278;28;20039;-62
2023/10/12 10:46:17;;;;;;;38.67;22.48;;;;;;;21.10;62.50;101295.13;4969824;28;20526;-66
2023/10/12 10:48:49;;;;;;;39.10;21.52;;;;;;;21.10;62.54;101292.47;4970416;28;20125;-64
2023/10/12 10:51:24;;;;;;;34.63;19.92;;;;;;;21.09;62.44;101293.44;4970514;28;20038;-64
2023/10/12 10:53:52;;;;;;;33.38;19.67;;;;;;;21.10;62.83;101295.13;4950808;28;20114;-68
2023/10/12 10:56:32;;;;;;;33.05;19.27;;;;;;;21.07;62.48;101290.09;4950551;28;20050;-65
2023/10/12 10:58:59;;;;;;;34.10;19.63;;;;;;;21.09;62.51;101288.13;4949988;28;20109;-65
2023/10/12 11:01:26;;;;;;;30.98;17.45;;;;;;;21.08;62.72;101294.41;4950258;28;20399;-65
2023/10/12 11:03:52;;;;;;;35.03;17.48;;;;;;;21.06;62.66;101293.72;4950322;28;20035;-67
2023/10/12 11:06:24;;;;;;;31.33;17.17;;;;;;;21.06;62.40;101302.50;4949996;28;20039;-64
2023/10/12 11:09:06;;;;;;;29.05;15.75;;;;;;;21.05;62.22;101292.88;4950886;28;20032;-63
2023/10/12 11:11:44;;;;;;;28.88;16.40;;;;;;;21.04;62.28;101288.53;4950608;28;20035;-65
2023/10/12 11:14:11;;;;;;;23.73;15.02;;;;;;;21.03;62.36;101281.56;4951613;28;20035;-66
2023/10/12 11:16:37;;;;;;;28.17;15.57;;;;;;;21.02;62.58;101278.06;4952210;28;20034;-67
2023/10/12 11:19:08;;;;;;;27.58;14.45;;;;;;;21.03;62.28;101276.28;4942669;28;20059;-67
2023/10/12 11:21:33;;;;;;;24.70;14.75;;;;;;;21.01;62.31;101278.19;4950209;28;20046;-63
2023/10/12 11:24:01;;;;;;;27.67;15.48;;;;;;;21.00;62.29;101284.50;4950041;28;20032;-64
2023/10/12 11:26:27;;;;;;;24.25;14.65;;;;;;;20.99;62.10;101286.28;4950241;28;20023;-67
2023/10/12 11:29:06;;;;;;;25.08;15.60;;;;;;;20.98;62.20;101287.28;4950046;28;20698;-66
2023/10/12 11:31:33;;;;;;;22.65;13.65;;;;;;;20.99;62.06;101286.28;4949845;28;20045;-65
2023/10/12 11:34:06;;;;;;;21.38;13.18;;;;;;;21.00;62.08;101289.78;4950022;28;20047;-64
2023/10/12 11:36:32;;;;;;;22.93;13.60;;;;;;;20.99;62.46;101280.97;4950291;28;20038;-63
2023/10/12 11:39:04;;;;;;;21.30;13.57;;;;;;;20.99;62.20;101274.84;4950168;28;20127;-65
2023/10/12 11:41:29;;;;;;;19.95;11.60;;;;;;;20.98;62.02;101281.97;4950180;28;20046;-66
2023/10/12 11:44:03;;;;;;;21.45;12.52;;;;;;;20.97;62.32;101277.63;4949935;28;20039;-68
2023/10/12 11:46:40;;;;;;;21.10;11.52;;;;;;;20.96;62.06;101273.28;4949820;28;20118;-68
2023/10/12 11:49:10;;;;;;;22.27;12.60;;;;;;;20.96;62.40;101270.66;4950092;28;20114;-63
2023/10/12 11:51:40;;;;;;;21.13;12.38;;;;;;;20.99;61.78;101269.56;4950103;28;20057;-66
2023/10/12 11:54:07;;;;;;;19.25;11.38;;;;;;;20.97;62.00;101268.84;4949464;28;20047;-67
2023/10/12 11:56:43;;;;;;;19.75;12.10;;;;;;;20.94;62.10;101272.59;4950149;28;20035;-63
2023/10/12 11:59:13;;;;;;;20.65;12.10;;;;;;;20.96;61.94;101260.06;4949176;28;20114;-66
2023/10/12 12:01:40;;;;;;;19.30;11.65;;;;;;;20.94;62.37;101258.53;4947240;28;20121;-67
2023/10/12 12:04:10;;;;;;;22.40;10.80;;;;;;;20.83;62.71;101267.41;4948677;28;20035;-66
2023/10/12 12:06:36;;;;;;;18.52;10.05;;;;;;;20.76;63.13;101253.00;4948075;28;20124;-65
2023/10/12 12:09:07;;;;;;;16.25;9.30;;;;;;;20.71;62.91;101258.72;4948737;28;20455;-64
2023/10/12 12:11:37;;;;;;;16.55;9.40;;;;;;;20.75;63.05;101262.75;4947984;28;20031;-63
2023/10/12 12:14:06;;;;;;;16.92;9.73;;;;;;;20.85;62.49;101254.84;4948168;28;20112;-66
2023/10/12 12:16:34;;;;;;;17.73;10.23;;;;;;;20.90;62.39;101260.56;4949268;28;20041;-66
2023/10/12 12:19:00;;;;;;;17.83;10.00;;;;;;;20.95;62.24;101257.53;4948872;28;20082;-65
2023/10/12 12:21:29;;;;;;;16.88;10.07;;;;;;;20.95;61.82;101245.16;4948693;28;20039;-65
2023/10/12 12:26:45;;;;;;;16.50;8.95;;;;;;;20.98;61.48;101234.28;4948914;28;20054;-65
2023/10/12 12:29:11;;;;;;;14.13;8.85;;;;;;;20.98;61.97;101226.34;4948773;28;20039;-64
2023/10/12 12:31:37;;;;;;;14.05;8.52;;;;;;;20.98;61.86;101231.63;4949005;28;20391;-65
2023/10/12 12:34:18;;;;;;;14.20;8.55;;;;;;;20.95;61.79;101237.19;5024861;28;20398;-67
2023/10/12 12:36:43;;;;;;;16.38;8.93;;;;;;;20.98;62.10;101223.69;5023342;28;20049;-64
2023/10/12 12:39:10;;;;;;;14.52;7.65;;;;;;;20.97;61.62;101221.16;5023469;28;20034;-66
2023/10/12 12:41:36;;;;;;;16.48;8.35;;;;;;;20.97;61.64;101207.91;5023818;28;20021;-66
2023/10/12 12:44:02;;;;;;;16.35;8.45;;;;;;;20.95;61.86;101199.25;5023546;28;20037;-66
2023/10/12 12:46:30;;;;;;;12.85;7.88;;;;;;;20.95;61.99;101213.34;5023619;28;20034;-66
2023/10/12 12:48:56;;;;;;;12.95;7.70;;;;;;;20.93;61.94;101198.56;5021285;28;20510;-69
2023/10/12 12:51:22;;;;;;;13.80;7.30;;;;;;;20.82;62.61;101210.09;5022977;28;20045;-66
2023/10/12 12:53:50;;;;;;;13.80;7.13;;;;;;;20.72;63.00;101215.34;5022397;28;20055;-65
2023/10/12 12:56:17;;;;;;;11.27;6.80;;;;;;;20.59;63.19;101204.94;5023050;28;20091;-68
2023/10/12 12:58:47;;;;;;;12.20;7.18;;;;;;;20.55;63.60;101221.22;5022400;28;20044;-67
2023/10/12 13:01:17;;;;;;;10.85;7.03;;;;;;;20.51;63.88;101222.47;5021948;28;20475;-66
2023/10/12 13:03:43;;;;;;;16.67;7.22;;;;;;;20.46;64.09;101223.69;5022137;28;20037;-62
2023/10/12 13:06:08;;;;;;;13.43;7.35;;;;;;;20.46;64.01;101226.34;5021908;28;20034;-67
2023/10/12 13:08:35;;;;;;;14.13;7.72;;;;;;;20.43;64.17;101223.13;5022544;28;20037;-66
2023/10/12 13:11:00;;;;;;;11.70;6.93;;;;;;;20.44;64.25;101216.84;5021314;28;20393;-67
2023/10/12 13:13:25;;;;;;;12.50;6.88;;;;;;;20.45;64.00;101229.13;5022442;28;20048;-67
2023/10/12 13:15:51;;;;;;;13.27;6.73;;;;;;;20.46;63.94;101223.69;5021397;28;20036;-68
2023/10/12 13:18:16;;;;;;;13.45;6.80;;;;;;;20.61;63.76;101216.22;5021405;28;20274;-62
2023/10/12 13:20:46;;;;;;;11.82;6.45;;;;;;;20.72;63.29;101219.81;5021478;28;20152;-66
2023/10/12 13:23:18;;;;;;;11.65;6.82;;;;;;;20.80;63.17;101215.50;5023385;28;20033;-66
2023/10/12 13:25:44;;;;;;;11.90;7.30;;;;;;;20.84;62.88;101216.09;5023018;28;20029;-62
2023/10/12 13:28:10;;;;;;;12.18;6.55;;;;;;;20.87;63.05;101212.34;5022776;28;20032;-64
2023/10/12 13:30:38;;;;;;;12.15;6.57;;;;;;;20.88;63.10;101211.38;5022843;28;20470;-64
2023/10/12 13:33:05;;;;;;;10.05;6.43;;;;;;;20.89;62.83;101215.72;5022400;28;20136;-64